Time;durP1;ratioP1;P1;durP2;ratioP2;P2;SDS_P1;SDS_P2;PMS_P1;PMS_P2;Temp;Humidity;BMP_temperature;BMP_pressure;BME280_temperature;BME280_humidity;BME280_pressure;Samples;Min_cycle;Max_cycle;Signal;HPM_P1;HPM_P2
2022/03/05 00:02:07;;;;;;;3.50;1.90;;;;;;;-1.83;66.66;98799.91;104604;1277;61698;-30
2022/03/05 00:04:53;;;;;;;4.20;2.40;;;;;;;-1.86;66.86;98800.36;104670;1277;72818;-30
2022/03/05 00:07:39;;;;;;;2.90;1.90;;;;;;;-1.86;67.37;98799.15;104659;1277;74978;-30
2022/03/05 00:10:25;;;;;;;2.70;1.70;;;;;;;-1.93;67.87;98798.55;104651;1277;73957;-30
2022/03/05 00:13:10;;;;;;;2.70;1.80;;;;;;;-1.78;67.92;98802.29;104569;1277;61173;-31
2022/03/05 00:15:57;;;;;;;1.90;1.40;;;;;;;-1.32;65.89;98802.35;104367;1277;61160;-28
2022/03/05 00:18:43;;;;;;;4.20;1.80;;;;;;;-1.18;65.88;98806.45;104660;1277;75362;-28
2022/03/05 00:21:30;;;;;;;2.90;1.60;;;;;;;-1.30;65.59;98806.89;104359;1277;73456;-28
2022/03/05 00:24:16;;;;;;;3.20;1.70;;;;;;;-1.45;66.44;98805.70;104620;1277;74137;-28
2022/03/05 00:27:03;;;;;;;0.90;0.80;;;;;;;-1.55;66.77;98803.68;104534;1277;61196;-28
2022/03/05 00:29:49;;;;;;;2.20;1.50;;;;;;;-1.67;67.03;98807.52;104333;1277;61035;-28
2022/03/05 00:32:34;;;;;;;3.50;2.20;;;;;;;-1.71;67.67;98809.52;104527;1276;75372;-30
2022/03/05 00:35:20;;;;;;;3.40;2.00;;;;;;;-1.78;67.97;98803.13;104616;1277;73151;-28
2022/03/05 00:38:07;;;;;;;1.70;1.10;;;;;;;-1.84;68.56;98800.80;104580;1277;74033;-28
2022/03/05 00:40:52;;;;;;;5.10;2.20;;;;;;;-1.84;68.87;98802.66;104662;1277;60988;-28
2022/03/05 00:43:38;;;;;;;5.80;2.90;;;;;;;-1.95;69.23;98797.58;104604;1277;60994;-28
2022/03/05 00:46:26;;;;;;;5.20;2.20;;;;;;;-1.78;68.56;98796.30;104656;1277;75333;-28
2022/03/05 00:49:12;;;;;;;2.20;1.50;;;;;;;-1.23;66.89;98802.52;104683;1276;73273;-28
2022/03/05 00:51:59;;;;;;;2.90;2.20;;;;;;;-1.09;66.32;98802.19;104451;1277;74264;-28
2022/03/05 00:54:44;;;;;;;2.40;1.40;;;;;;;-1.34;66.44;98800.05;104526;1276;61336;-28
2022/03/05 00:57:30;;;;;;;4.30;2.10;;;;;;;-1.41;67.07;98803.36;104569;1277;61057;-29
2022/03/05 01:00:16;;;;;;;4.10;2.00;;;;;;;-1.57;67.48;98804.63;104514;1277;75427;-29
2022/03/05 01:03:02;;;;;;;3.00;2.00;;;;;;;-1.68;68.05;98802.79;104664;1277;74443;-28
2022/03/05 01:05:31;;;;;;;1.90;1.20;;;;;;;-1.74;68.75;98801.98;104523;1277;71401;-30
2022/03/05 01:07:59;;;;;;;1.70;1.20;;;;;;;-1.75;68.53;98801.15;104567;1277;61227;-31
2022/03/05 01:10:45;;;;;;;3.20;1.70;;;;;;;-1.91;68.97;98803.56;104594;1277;61858;-30
2022/03/05 01:13:30;;;;;;;2.40;1.60;;;;;;;-1.87;69.53;98799.18;104659;1276;72031;-29
2022/03/05 01:16:00;;;;;;;3.10;1.80;;;;;;;-1.85;69.33;98800.30;104640;1277;74746;-29
2022/03/05 01:18:29;;;;;;;2.20;1.60;;;;;;;-1.32;67.81;98799.80;104628;1277;72835;-29
2022/03/05 01:20:59;;;;;;;1.90;1.40;;;;;;;-1.03;65.89;98799.42;104569;1277;62730;-29
2022/03/05 01:23:27;;;;;;;3.20;1.90;;;;;;;-1.03;66.11;98802.46;104395;1277;61231;-29
2022/03/05 01:25:55;;;;;;;2.30;1.70;;;;;;;-1.13;65.55;98800.45;104603;1277;74163;-29
2022/03/05 01:28:23;;;;;;;1.90;1.40;;;;;;;-1.32;66.14;98800.84;104527;1277;74556;-29
2022/03/05 01:30:51;;;;;;;2.70;1.00;;;;;;;-1.44;66.79;98800.41;104618;1277;71896;-29
2022/03/05 01:33:20;;;;;;;1.70;1.20;;;;;;;-1.55;67.18;98801.66;104711;1277;62831;-30
2022/03/05 01:35:48;;;;;;;5.40;2.70;;;;;;;-1.67;67.42;98804.62;104525;1277;61053;-29
2022/03/05 01:38:16;;;;;;;3.40;1.80;;;;;;;-1.78;67.76;98807.73;104626;1277;73970;-30
2022/03/05 01:40:45;;;;;;;4.00;2.20;;;;;;;-1.75;68.28;98812.21;104663;1277;74427;-30
2022/03/05 01:43:13;;;;;;;5.00;2.60;;;;;;;-1.83;68.22;98806.55;104605;1277;72771;-31
2022/03/05 01:45:40;;;;;;;3.30;1.90;;;;;;;-1.88;68.09;98809.78;104257;1277;61258;-30
2022/03/05 01:48:08;;;;;;;3.80;2.50;;;;;;;-1.93;68.29;98808.56;104570;1277;61221;-30
2022/03/05 01:50:36;;;;;;;2.50;1.60;;;;;;;-1.92;68.21;98811.11;104585;1277;74088;-30
2022/03/05 01:53:05;;;;;;;2.30;1.50;;;;;;;-1.43;67.07;98811.09;104389;1277;74463;-30
2022/03/05 01:55:33;;;;;;;2.90;1.80;;;;;;;-0.99;65.33;98810.70;104602;1277;71434;-29
2022/03/05 01:58:02;;;;;;;3.50;2.00;;;;;;;-1.13;64.21;98815.81;104583;1277;61853;-28
2022/03/05 02:00:30;;;;;;;3.70;2.40;;;;;;;-1.36;64.90;98813.39;104270;1277;62579;-28
2022/03/05 02:02:59;;;;;;;2.90;2.00;;;;;;;-1.41;66.01;98813.57;104585;1277;74087;-29
2022/03/05 02:05:28;;;;;;;4.40;2.40;;;;;;;-1.56;65.09;98813.77;104433;1277;72999;-30
2022/03/05 02:07:56;;;;;;;3.10;2.20;;;;;;;-1.66;65.58;98815.81;104624;1277;72623;-30
2022/03/05 02:10:29;;;;;;;;;;;;;;;-1.75;65.27;98809.52;104625;1277;61038;-28
2022/03/05 02:12:59;;;;;;;4.30;2.00;;;;;;;-1.76;66.00;98811.22;104614;1277;61224;-28
2022/03/05 02:15:27;;;;;;;3.60;1.80;;;;;;;-1.87;66.56;98811.45;104680;1277;74141;-30
2022/03/05 02:17:55;;;;;;;3.80;2.20;;;;;;;-1.95;65.62;98807.79;104626;1277;74519;-30
2022/03/05 02:20:28;;;;;;;4.60;2.20;;;;;;;-1.97;65.46;98811.93;104689;1277;72931;-30
2022/03/05 02:22:55;;;;;;;2.40;1.50;;;;;;;-1.97;65.33;98811.78;104624;1278;61284;-29
2022/03/05 02:25:24;;;;;;;3.40;2.10;;;;;;;-1.97;65.43;98813.48;104738;1277;61082;-30
2022/03/05 02:27:52;;;;;;;4.10;2.60;;;;;;;-2.01;65.59;98810.72;104584;1277;73927;-30
2022/03/05 02:30:20;;;;;;;2.20;1.50;;;;;;;-2.02;66.08;98811.45;104316;1277;75001;-30
2022/03/05 02:32:48;;;;;;;4.60;1.80;;;;;;;-2.08;65.42;98808.91;104606;1277;72766;-29
2022/03/05 02:35:17;;;;;;;4.70;2.00;;;;;;;-2.13;65.26;98812.46;104591;1277;61211;-30
2022/03/05 02:37:45;;;;;;;4.30;2.30;;;;;;;-2.14;65.39;98815.55;104390;1277;61262;-30
2022/03/05 02:40:13;;;;;;;3.70;1.90;;;;;;;-2.12;65.18;98812.95;104612;1277;74329;-30
2022/03/05 02:42:42;;;;;;;3.00;2.30;;;;;;;-2.10;65.21;98817.98;104619;1277;74779;-30
2022/03/05 02:45:10;;;;;;;3.60;2.10;;;;;;;-2.08;65.50;98816.39;104534;1277;72799;-29
2022/03/05 02:47:38;;;;;;;2.40;1.30;;;;;;;-2.06;66.17;98822.29;104562;1277;61093;-28
2022/03/05 02:50:08;;;;;;;4.10;2.10;;;;;;;-1.79;65.57;98821.02;104470;1278;61166;-28
2022/03/05 02:52:38;;;;;;;3.40;1.90;;;;;;;-1.38;63.57;98815.87;104323;1277;73471;-29
2022/03/05 02:55:07;;;;;;;2.80;2.10;;;;;;;-1.41;63.13;98818.17;104319;1278;74589;-29
2022/03/05 02:57:36;;;;;;;3.80;2.20;;;;;;;-1.52;62.61;98816.70;104417;1277;72950;-29
2022/03/05 03:00:05;;;;;;;3.00;1.90;;;;;;;-1.52;63.05;98822.48;104726;1277;61203;-29
2022/03/05 03:02:33;;;;;;;2.90;1.80;;;;;;;-1.67;63.54;98819.26;104604;1277;61047;-29
2022/03/05 03:05:01;;;;;;;4.90;2.20;;;;;;;-1.73;64.25;98818.95;104613;1277;74109;-29
2022/03/05 03:07:29;;;;;;;3.40;1.80;;;;;;;-1.73;64.83;98825.75;104652;1277;74596;-29
2022/03/05 03:09:58;;;;;;;2.70;1.70;;;;;;;-1.79;65.42;98826.13;104572;1277;71572;-29
2022/03/05 03:12:32;;;;;;;4.60;2.30;;;;;;;-1.92;64.84;98825.05;104349;1277;61222;-29
2022/03/05 03:15:00;;;;;;;3.50;1.90;;;;;;;-1.97;64.79;98824.34;104379;1277;61067;-29
2022/03/05 03:17:29;;;;;;;3.90;1.80;;;;;;;-1.99;65.08;98824.94;104566;1277;74377;-29
2022/03/05 03:19:57;;;;;;;3.60;2.30;;;;;;;-1.98;65.15;98825.06;104621;1277;74541;-29
2022/03/05 03:22:25;;;;;;;2.70;1.60;;;;;;;-2.01;65.28;98827.56;104638;1277;73047;-29
2022/03/05 03:24:53;;;;;;;3.00;2.40;;;;;;;-2.06;65.75;98831.63;104554;1277;61336;-29
2022/03/05 03:27:21;;;;;;;7.50;2.40;;;;;;;-2.06;65.89;98832.65;104386;1277;61262;-29
2022/03/05 03:29:49;;;;;;;3.20;2.10;;;;;;;-2.07;65.36;98833.39;104637;1277;74116;-29
2022/03/05 03:32:17;;;;;;;4.70;2.20;;;;;;;-2.09;65.55;98835.30;104536;1277;74557;-29
2022/03/05 03:34:45;;;;;;;2.60;1.60;;;;;;;-2.09;65.86;98836.48;104588;1277;72802;-28
2022/03/05 03:37:13;;;;;;;2.60;1.40;;;;;;;-2.11;66.15;98838.77;104379;1277;61124;-28
2022/03/05 03:39:41;;;;;;;3.10;1.90;;;;;;;-2.12;66.18;98836.60;104640;1277;61217;-29
2022/03/05 03:42:09;;;;;;;2.90;2.00;;;;;;;-1.90;65.43;98834.86;104691;1276;74058;-28
2022/03/05 03:44:37;;;;;;;2.20;1.50;;;;;;;-1.43;63.25;98838.52;104642;1277;74389;-29
2022/03/05 03:47:07;;;;;;;1.60;1.30;;;;;;;-1.25;63.08;98839.06;104572;1277;73123;-28
2022/03/05 03:49:35;;;;;;;2.00;1.20;;;;;;;-1.38;63.42;98843.11;104539;1277;61146;-28
2022/03/05 03:52:03;;;;;;;1.90;1.40;;;;;;;-1.48;64.09;98844.66;104565;1277;61146;-28
2022/03/05 03:54:31;;;;;;;2.50;1.30;;;;;;;-1.57;64.21;98843.42;104608;1277;72624;-28
2022/03/05 03:56:59;;;;;;;3.90;1.80;;;;;;;-1.62;64.58;98843.58;104426;1277;74559;-28
2022/03/05 03:59:27;;;;;;;3.20;2.00;;;;;;;-1.73;65.18;98845.85;104683;1277;72784;-28
2022/03/05 04:01:56;;;;;;;4.90;2.60;;;;;;;-1.81;65.19;98847.84;104652;1277;61112;-28
2022/03/05 04:04:24;;;;;;;2.40;1.30;;;;;;;-1.84;65.78;98852.17;104691;1277;61073;-28
2022/03/05 04:09:40;;;;;;;4.10;2.40;;;;;;;-1.96;66.17;98859.37;104669;1277;74431;-28
2022/03/05 04:12:08;;;;;;;3.90;2.50;;;;;;;-1.99;66.29;98860.52;104371;1277;73232;-27
2022/03/05 04:14:40;;;;;;;4.00;2.00;;;;;;;-2.02;66.65;98860.94;104311;1277;61061;-27
2022/03/05 04:17:27;;;;;;;4.30;2.20;;;;;;;-2.04;66.83;98862.17;104341;1277;61242;-30
2022/03/05 04:20:15;;;;;;;6.40;2.90;;;;;;;-2.07;67.06;98868.75;104345;1277;72857;-29
2022/03/05 04:22:45;;;;;;;3.40;1.80;;;;;;;-2.05;67.35;98869.88;104365;1275;74706;-29
2022/03/05 04:25:14;;;;;;;1.20;1.10;;;;;;;-1.63;66.28;98875.80;104379;1277;71144;-29
2022/03/05 04:27:41;;;;;;;3.20;2.10;;;;;;;-1.19;64.80;98878.73;104705;1271;61042;-31
2022/03/05 04:30:10;;;;;;;3.90;2.80;;;;;;;-1.09;63.85;98881.58;104749;1274;61111;-32
2022/03/05 04:32:48;;;;;;;5.00;2.50;;;;;;;-1.13;64.57;98882.26;104647;1274;76329;-30
2022/03/05 04:35:16;;;;;;;3.00;2.20;;;;;;;-1.25;64.70;98880.10;104667;1274;73419;-30
2022/03/05 04:37:46;;;;;;;7.50;3.60;;;;;;;-1.42;65.34;98879.36;104360;1274;72774;-30
2022/03/05 04:40:15;;;;;;;4.90;2.30;;;;;;;-1.57;66.20;98880.39;104867;1274;61140;-30
2022/03/05 04:42:44;;;;;;;4.10;2.80;;;;;;;-1.68;66.76;98878.71;104845;1274;61114;-30
2022/03/05 04:45:13;;;;;;;3.50;2.00;;;;;;;-1.76;67.26;98882.90;104821;1271;74847;-30
2022/03/05 04:47:41;;;;;;;8.00;2.80;;;;;;;-1.84;67.49;98879.76;104811;1271;74779;-30
2022/03/05 04:50:10;;;;;;;3.70;2.40;;;;;;;-1.87;67.79;98882.26;104857;1271;72213;-31
2022/03/05 04:52:38;;;;;;;5.00;2.50;;;;;;;-1.85;67.63;98885.24;105128;1271;60959;-29
2022/03/05 04:55:07;;;;;;;4.10;2.10;;;;;;;-1.92;68.44;98891.58;105121;1271;61156;-29
2022/03/05 04:57:35;;;;;;;4.60;2.20;;;;;;;-1.94;68.58;98887.55;104632;1272;74325;-29
2022/03/05 05:00:05;;;;;;;2.10;1.70;;;;;;;-1.85;68.56;98889.31;104808;1271;74646;-29
2022/03/05 05:02:33;;;;;;;3.10;2.00;;;;;;;-1.31;67.08;98893.80;104717;1272;73033;-29
2022/03/05 05:05:02;;;;;;;3.60;1.70;;;;;;;-1.02;65.87;98898.55;104646;1275;61151;-29
2022/03/05 05:07:30;;;;;;;3.70;2.30;;;;;;;-0.96;65.89;98897.64;104766;1274;61070;-29
2022/03/05 05:09:58;;;;;;;6.90;3.00;;;;;;;-1.18;66.47;98904.39;104831;1271;74141;-30
2022/03/05 05:12:26;;;;;;;3.90;2.30;;;;;;;-1.29;66.65;98906.65;104909;1271;74451;-29
2022/03/05 05:14:55;;;;;;;4.40;2.50;;;;;;;-1.49;67.13;98907.53;104914;1271;72860;-29
2022/03/05 05:17:24;;;;;;;4.70;2.50;;;;;;;-1.65;67.83;98913.85;104760;1272;61150;-29
2022/03/05 05:19:53;;;;;;;4.30;2.30;;;;;;;-1.67;68.42;98914.75;104996;1271;61146;-29
2022/03/05 05:22:21;;;;;;;5.60;2.00;;;;;;;-1.70;68.96;98915.39;104967;1271;73914;-29
2022/03/05 05:24:49;;;;;;;5.80;3.40;;;;;;;-1.76;69.14;98919.13;105173;1271;74526;-29
2022/03/05 05:27:18;;;;;;;4.90;2.60;;;;;;;-1.85;69.25;98918.61;104850;1271;72896;-29
2022/03/05 05:29:46;;;;;;;4.30;2.40;;;;;;;-1.90;69.58;98918.91;104570;1274;61190;-28
2022/03/05 05:32:14;;;;;;;4.60;3.10;;;;;;;-1.45;68.33;98923.55;104789;1274;61025;-28
2022/03/05 05:34:43;;;;;;;5.90;3.10;;;;;;;-1.06;67.14;98923.40;104874;1271;72612;-28
2022/03/05 05:37:15;;;;;;;5.20;2.80;;;;;;;-1.06;67.03;98924.95;104729;1272;74486;-28
2022/03/05 05:39:43;;;;;;;5.40;3.40;;;;;;;-1.17;67.30;98922.59;104704;1272;71463;-28
2022/03/05 05:42:12;;;;;;;4.80;2.60;;;;;;;-1.24;67.57;98921.64;104820;1271;61152;-28
2022/03/05 05:44:40;;;;;;;10.30;4.90;;;;;;;-1.37;67.84;98920.91;104835;1271;61036;-28
2022/03/05 05:47:09;;;;;;;8.30;3.80;;;;;;;-1.56;68.24;98929.21;104894;1271;74177;-31
2022/03/05 05:49:37;;;;;;;5.60;2.90;;;;;;;-1.70;67.97;98927.80;104776;1271;74752;-30
2022/03/05 05:52:06;;;;;;;5.90;3.40;;;;;;;-1.74;67.73;98929.27;105016;1271;72726;-28
2022/03/05 05:54:34;;;;;;;6.30;3.70;;;;;;;-1.69;68.37;98930.66;104664;1274;60952;-27
2022/03/05 05:57:04;;;;;;;4.80;3.10;;;;;;;-1.79;68.68;98934.40;104910;1274;61013;-28
2022/03/05 05:59:33;;;;;;;5.80;3.40;;;;;;;-1.81;68.60;98931.58;105159;1274;72843;-28
2022/03/05 06:02:01;;;;;;;6.60;3.00;;;;;;;-1.78;68.88;98934.69;105109;1271;74536;-28
2022/03/05 06:04:30;;;;;;;9.30;3.70;;;;;;;-1.41;67.39;98939.25;104765;1272;73190;-28
2022/03/05 06:06:58;;;;;;;4.60;2.50;;;;;;;-1.20;66.60;98937.68;104696;1274;61148;-28
2022/03/05 06:09:27;;;;;;;6.80;3.50;;;;;;;-1.27;65.35;98939.11;104965;1271;61131;-28
2022/03/05 06:11:56;;;;;;;4.60;2.70;;;;;;;-1.36;64.83;98945.39;105131;1271;72361;-28
2022/03/05 06:14:24;;;;;;;8.00;3.70;;;;;;;-1.35;65.53;98955.57;105085;1274;73574;-28
2022/03/05 06:16:55;;;;;;;8.10;4.50;;;;;;;-1.45;66.12;98958.80;105155;1271;72779;-30
2022/03/05 06:19:24;;;;;;;8.40;4.10;;;;;;;-1.48;66.52;98963.50;105146;1272;61083;-29
2022/03/05 06:21:53;;;;;;;5.90;3.10;;;;;;;-1.68;67.10;98959.91;104972;1271;61099;-28
2022/03/05 06:24:22;;;;;;;3.20;2.00;;;;;;;-1.79;66.85;98963.31;105098;1271;74056;-28
2022/03/05 06:26:51;;;;;;;4.40;2.70;;;;;;;-1.80;66.57;98968.64;104824;1274;74303;-28
2022/03/05 06:29:22;;;;;;;3.70;2.50;;;;;;;-1.77;66.63;98971.10;104807;1274;72812;-29
2022/03/05 06:31:52;;;;;;;4.40;2.30;;;;;;;-1.83;66.97;98970.11;104609;1275;62553;-28
2022/03/05 06:34:21;;;;;;;3.30;2.20;;;;;;;-1.84;66.94;98968.42;104854;1271;61011;-28
2022/03/05 06:36:50;;;;;;;3.30;2.40;;;;;;;-1.85;66.97;98964.54;104779;1271;72861;-28
2022/03/05 06:39:19;;;;;;;5.90;3.30;;;;;;;-1.87;67.30;98972.10;104675;1274;74595;-28
2022/03/05 06:41:47;;;;;;;5.20;3.20;;;;;;;-1.91;67.17;98972.55;104950;1271;72987;-28
2022/03/05 06:44:16;;;;;;;5.70;3.20;;;;;;;-1.76;67.13;98977.54;104735;1274;61375;-28
2022/03/05 06:46:45;;;;;;;15.00;7.60;;;;;;;-1.24;65.70;98987.08;104749;1271;61038;-28
2022/03/05 06:49:15;;;;;;;15.10;8.30;;;;;;;-0.93;64.87;98991.14;104878;1271;72665;-28
2022/03/05 06:51:47;;;;;;;6.70;4.40;;;;;;;-1.06;64.58;98995.30;104823;1271;73424;-29
2022/03/05 06:54:19;;;;;;;3.00;2.10;;;;;;;-1.27;64.78;98994.65;104628;1274;72988;-28
2022/03/05 06:56:50;;;;;;;27.20;12.90;;;;;;;-1.35;65.57;99000.72;104779;1274;61260;-28
2022/03/05 06:59:19;;;;;;;74.00;30.00;;;;;;;-1.40;65.38;98998.16;104862;1271;61036;-28
2022/03/05 07:01:51;;;;;;;24.90;9.60;;;;;;;-1.49;65.88;99001.01;104803;1271;72755;-28
2022/03/05 07:04:20;;;;;;;6.10;2.80;;;;;;;-1.59;66.24;98998.79;104696;1274;74731;-28
2022/03/05 07:06:55;;;;;;;24.60;12.90;;;;;;;-1.71;66.72;99001.54;105062;1271;72811;-28
2022/03/05 07:09:26;;;;;;;22.00;9.30;;;;;;;-1.71;66.89;99009.16;104810;1271;61207;-29
2022/03/05 07:11:55;;;;;;;9.30;5.90;;;;;;;-1.79;65.90;99017.64;104654;1271;61086;-28
2022/03/05 07:14:36;;;;;;;4.30;2.30;;;;;;;-1.85;66.03;99019.51;104843;1271;73892;-28
2022/03/05 07:17:05;;;;;;;5.40;2.90;;;;;;;-1.91;66.15;99020.04;104739;1274;74588;-28
2022/03/05 07:19:41;;;;;;;3.00;2.30;;;;;;;-1.78;66.50;99027.29;104932;1274;71731;-28
2022/03/05 07:22:15;;;;;;;4.50;1.90;;;;;;;-1.86;66.47;99028.58;104837;1271;61099;-28
2022/03/05 07:24:47;;;;;;;5.00;2.70;;;;;;;-1.78;66.30;99030.89;104829;1271;61019;-28
2022/03/05 07:27:32;;;;;;;7.60;3.80;;;;;;;-1.89;66.46;99029.66;105096;1271;76192;-31
2022/03/05 07:30:06;;;;;;;4.60;2.70;;;;;;;-1.88;66.46;99032.70;105036;1271;74597;-32
2022/03/05 07:32:35;;;;;;;13.00;5.00;;;;;;;-1.87;66.50;99029.79;104753;1271;71653;-30
2022/03/05 07:35:05;;;;;;;5.00;3.20;;;;;;;-1.89;66.46;99030.54;105061;1271;61207;-31
2022/03/05 07:37:34;;;;;;;9.00;4.80;;;;;;;-1.88;66.67;99028.11;104899;1271;61140;-31
2022/03/05 07:40:05;;;;;;;7.00;4.60;;;;;;;-1.62;66.37;99031.70;104742;1271;73941;-28
2022/03/05 07:42:34;;;;;;;11.70;5.90;;;;;;;-1.06;64.23;99035.55;104625;1271;73491;-28
2022/03/05 07:45:06;;;;;;;11.10;6.60;;;;;;;-1.03;63.90;99040.02;104736;1273;71410;-28
2022/03/05 07:47:36;;;;;;;11.10;6.10;;;;;;;-1.24;64.51;99035.80;104614;1274;61147;-28
2022/03/05 07:50:05;;;;;;;11.10;7.30;;;;;;;-1.12;65.21;99037.08;104641;1274;61086;-28
2022/03/05 07:52:37;;;;;;;14.50;8.10;;;;;;;-1.32;65.68;99034.17;104695;1274;74298;-28
2022/03/05 07:55:11;;;;;;;25.80;12.80;;;;;;;-1.19;65.62;99038.67;105109;1274;73573;-29
2022/03/05 07:57:44;;;;;;;19.90;12.40;;;;;;;-1.21;65.98;99038.75;105051;1271;73059;-29
2022/03/05 08:00:16;;;;;;;7.80;4.00;;;;;;;-1.21;66.49;99039.43;104842;1271;61271;-29
2022/03/05 08:03:02;;;;;;;11.10;7.00;;;;;;;-1.27;66.18;99039.13;104605;1275;61101;-29
2022/03/05 08:05:31;;;;;;;2.60;1.70;;;;;;;-1.40;65.53;99037.84;104816;1271;72721;-29
2022/03/05 08:08:04;;;;;;;7.30;4.00;;;;;;;-1.46;65.18;99038.02;104853;1271;74512;-29
2022/03/05 08:10:45;;;;;;;2.30;1.50;;;;;;;-1.43;65.14;99046.45;104703;1271;72956;-29
2022/03/05 08:13:22;;;;;;;5.40;2.40;;;;;;;-1.60;64.65;99041.87;104867;1271;61137;-29
2022/03/05 08:15:52;;;;;;;8.10;4.40;;;;;;;-1.55;65.32;99046.14;104358;1275;61248;-29
2022/03/05 08:18:40;;;;;;;9.20;5.30;;;;;;;-1.54;64.87;99045.61;104791;1271;74051;-29
2022/03/05 08:21:17;;;;;;;17.50;9.90;;;;;;;-1.52;65.22;99045.38;104908;1271;73123;-29
2022/03/05 08:23:55;;;;;;;6.30;4.00;;;;;;;-1.45;64.72;99046.85;105039;1271;72737;-29
2022/03/05 08:26:30;;;;;;;17.20;10.20;;;;;;;-1.39;64.46;99050.23;104663;1275;61140;-29
2022/03/05 08:29:03;;;;;;;11.50;6.80;;;;;;;-1.39;63.83;99050.41;105037;1271;61123;-29
2022/03/05 08:31:35;;;;;;;4.60;2.60;;;;;;;-1.40;64.07;99057.09;104916;1271;72581;-29
2022/03/05 08:34:13;;;;;;;5.60;3.40;;;;;;;-1.46;63.71;99055.58;104895;1271;74463;-29
2022/03/05 08:36:42;;;;;;;5.40;2.10;;;;;;;-1.49;64.26;99060.09;104675;1275;72775;-29
2022/03/05 08:39:22;;;;;;;3.80;1.50;;;;;;;-1.57;64.53;99059.33;104817;1271;61156;-29
2022/03/05 08:41:56;;;;;;;34.30;16.80;;;;;;;-1.53;65.30;99057.16;105113;1274;61181;-29
2022/03/05 08:44:25;;;;;;;25.10;15.20;;;;;;;-1.49;65.34;99054.30;105182;1271;74392;-29
2022/03/05 08:46:59;;;;;;;5.90;3.30;;;;;;;-1.41;65.48;99055.42;105015;1275;74493;-29
2022/03/05 08:49:33;;;;;;;17.10;9.10;;;;;;;-1.43;65.55;99059.92;105037;1271;71946;-29
2022/03/05 08:52:03;;;;;;;16.50;8.90;;;;;;;-1.21;65.54;99063.12;104642;1271;61161;-29
2022/03/05 08:54:42;;;;;;;35.60;13.80;;;;;;;-1.06;65.52;99064.16;105069;1274;61005;-29
2022/03/05 08:57:13;;;;;;;22.00;9.40;;;;;;;-0.64;64.00;99071.25;105193;1271;74581;-29
2022/03/05 08:59:45;;;;;;;5.80;3.00;;;;;;;-0.23;62.05;99073.21;105159;1271;75009;-29
2022/03/05 09:02:17;;;;;;;28.40;15.00;;;;;;;-0.40;62.07;99069.57;104804;1271;414605;-30
2022/03/05 09:04:51;;;;;;;;;;;;;;;-0.32;62.30;99073.38;104777;1274;61012;-28
2022/03/05 09:07:24;;;;;;;2.70;1.70;;;;;;;-0.68;61.88;99078.23;105049;1271;61053;-28
2022/03/05 09:09:58;;;;;;;11.50;5.70;;;;;;;-0.64;62.60;99083.71;105118;1271;74321;-28
2022/03/05 09:12:44;;;;;;;2.90;1.90;;;;;;;-0.80;62.97;99079.12;104839;1271;74643;-30
2022/03/05 09:15:15;;;;;;;5.70;2.60;;;;;;;-1.11;63.64;99082.06;104812;1274;70382;-29
2022/03/05 09:18:01;;;;;;;4.50;3.10;;;;;;;-1.01;63.83;99090.42;104771;1271;61070;-28
2022/03/05 09:20:37;;;;;;;8.20;4.00;;;;;;;-1.00;63.82;99090.53;104904;1274;61122;-28
2022/03/05 09:23:12;;;;;;;12.80;6.50;;;;;;;-0.80;63.65;99090.38;104780;1274;74349;-30
2022/03/05 09:25:54;;;;;;;10.20;6.30;;;;;;;-0.80;63.94;99096.01;104804;1271;74409;-28
2022/03/05 09:28:26;;;;;;;16.40;7.50;;;;;;;-0.87;63.61;99096.75;104815;1271;73000;-30
2022/03/05 09:30:55;;;;;;;22.20;12.00;;;;;;;-0.87;63.19;99097.09;104685;1274;61147;-28
2022/03/05 09:33:39;;;;;;;13.60;6.70;;;;;;;-0.91;63.27;99102.69;104880;1274;61297;-28
2022/03/05 09:36:09;;;;;;;6.10;3.60;;;;;;;-1.00;63.77;99098.73;104679;1274;74112;-28
2022/03/05 09:38:41;;;;;;;11.10;6.40;;;;;;;-0.99;64.02;99101.09;104667;1277;74655;-28
2022/03/05 09:41:16;;;;;;;4.00;2.30;;;;;;;-1.04;63.67;99101.23;104859;1274;72995;-28
2022/03/05 09:43:46;;;;;;;29.40;14.30;;;;;;;-1.01;63.96;99104.58;104722;1274;61153;-30
2022/03/05 09:46:20;;;;;;;20.00;10.70;;;;;;;-0.86;64.07;99105.25;104608;1274;61198;-30
2022/03/05 09:48:53;;;;;;;21.90;12.20;;;;;;;-0.80;63.03;99104.02;104649;1274;72551;-30
2022/03/05 09:51:32;;;;;;;6.00;3.30;;;;;;;-0.76;62.53;99107.98;104687;1274;73606;-30
2022/03/05 09:54:05;;;;;;;4.60;1.90;;;;;;;-0.95;61.40;99102.48;104590;1274;72825;-29
2022/03/05 09:56:46;;;;;;;3.90;2.40;;;;;;;-0.82;61.41;99107.67;104813;1274;61033;-28
2022/03/05 09:59:14;;;;;;;5.00;2.40;;;;;;;-0.77;60.60;99107.48;104685;1274;61027;-31
2022/03/05 10:01:44;;;;;;;4.70;2.10;;;;;;;-0.77;59.81;99113.65;104770;1274;74039;-28
2022/03/05 10:04:24;;;;;;;7.50;4.10;;;;;;;-0.84;60.72;99117.11;104905;1274;74497;-28
2022/03/05 10:07:15;;;;;;;16.70;8.00;;;;;;;-0.94;61.02;99116.26;105007;1274;71826;-28
2022/03/05 10:10:08;;;;;;;3.70;2.40;;;;;;;-0.71;61.35;99123.66;104714;1271;61159;-29
2022/03/05 10:12:57;;;;;;;4.00;2.10;;;;;;;-0.77;61.00;99119.29;104707;1274;61060;-28
2022/03/05 10:15:28;;;;;;;13.60;6.70;;;;;;;-1.01;61.26;99118.70;104693;1271;73250;-28
2022/03/05 10:18:19;;;;;;;3.50;1.70;;;;;;;-1.00;61.81;99116.43;104641;1272;74432;-29
2022/03/05 10:20:53;;;;;;;6.90;3.50;;;;;;;-1.03;61.95;99111.09;104597;1274;73082;-28
2022/03/05 10:23:25;;;;;;;10.30;5.50;;;;;;;-0.86;62.73;99111.40;104904;1271;62487;-29
2022/03/05 10:25:57;;;;;;;7.30;3.80;;;;;;;-0.69;62.49;99110.98;104762;1271;61783;-28
2022/03/05 10:29:21;;;;;;;5.20;3.20;;;;;;;-0.66;62.57;99112.94;101683;1309;600352;-29
2022/03/05 10:32:08;;;;;;;2.40;1.40;;;;;;;-0.74;62.84;99118.15;103806;1285;61087;-29
2022/03/05 10:34:42;;;;;;;2.60;1.70;;;;;;;-0.64;62.72;99117.65;103978;1286;61123;-30
2022/03/05 10:37:25;;;;;;;9.40;4.60;;;;;;;-0.57;63.44;99116.73;104263;1284;72595;-29
2022/03/05 10:40:26;;;;;;;7.80;4.10;;;;;;;-0.39;63.38;99124.27;104151;1284;74591;-30
2022/03/05 10:43:02;;;;;;;18.00;8.50;;;;;;;-0.62;62.33;99120.29;103291;1283;343583;-30
2022/03/05 10:45:54;;;;;;;12.10;5.50;;;;;;;-0.67;62.38;99118.59;103876;1283;62513;-28
2022/03/05 10:48:29;;;;;;;4.30;2.60;;;;;;;-0.54;63.88;99121.89;103940;1283;61104;-28
2022/03/05 10:51:04;;;;;;;5.80;4.20;;;;;;;-0.54;63.46;99125.15;103984;1283;72241;-28
2022/03/05 10:53:59;;;;;;;3.30;2.00;;;;;;;-0.52;63.82;99123.88;103992;1284;73348;-29
2022/03/05 10:56:43;;;;;;;12.80;8.40;;;;;;;-0.51;63.28;99127.44;104325;1283;72649;-29
2022/03/05 10:59:16;;;;;;;;;;;;;;;-0.46;62.77;99130.69;104151;1283;61144;-30
2022/03/05 11:01:50;;;;;;;;;;;;;;;-0.42;62.82;99131.71;104247;1283;61181;-29
2022/03/05 11:04:27;;;;;;;8.00;4.60;;;;;;;-0.37;63.18;99133.44;104478;1283;73283;-29
2022/03/05 11:07:04;;;;;;;8.60;5.10;;;;;;;-0.45;62.64;99132.16;104735;1275;74601;-28
2022/03/05 11:09:47;;;;;;;5.10;3.30;;;;;;;-0.44;63.67;99133.33;104859;1274;71604;-28
2022/03/05 11:12:23;;;;;;;6.80;3.70;;;;;;;-0.42;63.53;99131.90;104844;1274;61130;-28
2022/03/05 11:14:59;;;;;;;4.10;1.70;;;;;;;-0.44;63.53;99131.61;104581;1276;61029;-28
2022/03/05 11:17:37;;;;;;;2.90;1.90;;;;;;;-0.64;64.20;99133.32;104917;1274;73402;-28
2022/03/05 11:20:16;;;;;;;6.30;3.80;;;;;;;-0.53;63.90;99138.60;104712;1274;73362;-28
2022/03/05 11:22:57;;;;;;;3.20;2.00;;;;;;;-0.42;63.99;99141.45;104575;1275;71773;-29
2022/03/05 11:25:26;;;;;;;5.40;3.30;;;;;;;-0.45;63.75;99141.38;104633;1275;61157;-28
2022/03/05 11:28:14;;;;;;;6.70;4.20;;;;;;;-0.43;63.60;99143.88;104508;1276;61177;-28
2022/03/05 11:30:51;;;;;;;8.10;5.00;;;;;;;-0.50;63.45;99138.30;104337;1276;73368;-29
2022/03/05 11:33:22;;;;;;;4.10;2.30;;;;;;;-0.61;63.54;99135.45;104590;1276;76480;-29
2022/03/05 11:36:05;;;;;;;5.90;3.80;;;;;;;-0.58;63.22;99135.86;104469;1276;71446;-28
2022/03/05 11:38:46;;;;;;;3.70;2.30;;;;;;;-0.44;64.03;99140.00;104681;1276;61137;-28
2022/03/05 11:41:28;;;;;;;6.00;3.30;;;;;;;-0.48;63.44;99139.44;104599;1276;61086;-29
2022/03/05 11:44:12;;;;;;;4.20;2.90;;;;;;;-0.45;63.10;99136.25;104478;1276;73292;-28
2022/03/05 11:46:41;;;;;;;5.40;3.50;;;;;;;-0.52;62.47;99133.95;104392;1276;76117;-28
2022/03/05 11:49:17;;;;;;;6.20;2.80;;;;;;;-0.50;62.30;99129.09;104505;1276;72828;-28
2022/03/05 11:51:55;;;;;;;4.40;3.10;;;;;;;-0.52;62.17;99127.64;104673;1276;61141;-28
2022/03/05 11:54:26;;;;;;;4.90;2.50;;;;;;;-0.53;62.21;99125.12;104559;1276;61044;-28
2022/03/05 11:57:17;;;;;;;13.80;7.40;;;;;;;-0.50;62.29;99126.89;104487;1276;72216;-28